Time;durP1;ratioP1;P1;durP2;ratioP2;P2;SDS_P1;SDS_P2;PMS_P1;PMS_P2;Temp;Humidity;BMP_temperature;BMP_pressure;BME280_temperature;BME280_humidity;BME280_pressure;Samples;Min_cycle;Max_cycle;Signal;HPM_P1;HPM_P2
2022/01/31 00:04:16;;;;;;;18.60;6.82;;;4.70;99.90;;;;;;4881385;29;20053;-81
2022/01/31 00:06:47;;;;;;;18.77;6.85;;;4.70;99.90;;;;;;4863958;29;20508;-80
2022/01/31 00:09:15;;;;;;;24.98;6.95;;;4.70;99.90;;;;;;4881321;29;20025;-81
2022/01/31 00:15:04;;;;;;;15.10;6.10;;;4.70;99.90;;;;;;4881132;29;20080;-80
2022/01/31 00:17:29;;;;;;;15.50;5.82;;;4.70;99.90;;;;;;4880957;29;20028;-80
2022/01/31 00:19:55;;;;;;;17.02;5.63;;;4.70;99.90;;;;;;4881024;29;20029;-81
2022/01/31 00:22:20;;;;;;;19.70;6.32;;;4.70;99.90;;;;;;4881076;29;20073;-81
2022/01/31 00:24:46;;;;;;;12.57;4.70;;;4.70;99.90;;;;;;4880621;29;20025;-80
2022/01/31 00:27:12;;;;;;;15.75;5.95;;;4.60;1.00;;;;;;4864077;29;20097;-81
2022/01/31 00:29:58;;;;;;;16.42;5.32;;;4.60;99.90;;;;;;4863932;29;20031;-80
2022/01/31 00:32:25;;;;;;;16.90;5.45;;;4.60;1.00;;;;;;4880809;29;20318;-80
2022/01/31 00:38:12;;;;;;;14.40;5.90;;;4.60;1.00;;;;;;4880656;29;20109;-80
2022/01/31 00:40:41;;;;;;;18.67;6.03;;;4.60;1.00;;;;;;4880603;29;20092;-80
2022/01/31 00:43:12;;;;;;;15.30;5.65;;;4.60;13.80;;;;;;4880948;29;20112;-79
2022/01/31 00:45:46;;;;;;;18.23;5.55;;;4.60;87.10;;;;;;4880958;29;20050;-79
2022/01/31 00:48:18;;;;;;;19.20;6.20;;;4.60;99.90;;;;;;4864164;29;20037;-79
2022/01/31 00:50:47;;;;;;;16.77;5.57;;;4.50;99.90;;;;;;4881173;29;20021;-79
2022/01/31 00:56:34;;;;;;;15.25;5.85;;;4.50;99.90;;;;;;4880812;29;20040;-78
2022/01/31 00:59:00;;;;;;;15.52;5.28;;;4.50;99.90;;;;;;4880576;29;20033;-78
2022/01/31 01:01:48;;;;;;;21.80;5.80;;;4.50;99.90;;;;;;4864181;29;20068;-79
2022/01/31 01:04:14;;;;;;;13.13;5.25;;;4.50;99.90;;;;;;4881645;29;20028;-78
2022/01/31 01:07:00;;;;;;;12.32;4.80;;;4.50;99.90;;;;;;4881759;29;20025;-79
2022/01/31 01:09:25;;;;;;;12.77;3.65;;;4.50;99.90;;;;;;4882313;29;20032;-78
2022/01/31 01:11:51;;;;;;;10.90;4.07;;;4.50;99.90;;;;;;4881233;29;20085;-78
2022/01/31 01:14:16;;;;;;;11.15;2.90;;;4.40;99.90;;;;;;4863887;29;20025;-78
2022/01/31 01:16:42;;;;;;;6.72;2.30;;;4.40;99.90;;;;;;4890102;29;20109;-79
2022/01/31 01:19:07;;;;;;;3.85;1.42;;;4.40;99.90;;;;;;4882490;29;20036;-78
2022/01/31 01:21:33;;;;;;;6.28;1.27;;;4.40;99.90;;;;;;4879920;29;20036;-79
2022/01/31 01:23:59;;;;;;;3.92;1.40;;;4.40;99.90;;;;;;4879990;29;20029;-78
2022/01/31 01:26:24;;;;;;;6.47;1.38;;;4.40;99.90;;;;;;4879831;29;20037;-79
2022/01/31 01:28:50;;;;;;;6.35;1.52;;;4.40;99.90;;;;;;4879820;29;20100;-78
2022/01/31 01:38:05;;;;;;;4.65;2.15;;;4.50;99.90;;;;;;4880592;29;20059;-78
2022/01/31 01:40:33;;;;;;;9.18;1.85;;;4.50;99.90;;;;;;4863300;29;20040;-79
2022/01/31 01:43:30;;;;;;;7.65;1.75;;;4.50;99.90;;;;;;4879701;29;20149;-79
2022/01/31 01:45:57;;;;;;;4.40;1.27;;;4.60;99.90;;;;;;4843026;29;20042;-78
2022/01/31 01:51:45;;;;;;;8.13;1.90;;;4.70;99.90;;;;;;4842406;29;20097;-79
2022/01/31 01:54:16;;;;;;;7.30;1.90;;;4.70;99.90;;;;;;4841509;29;20459;-78
2022/01/31 01:56:41;;;;;;;12.30;2.60;;;4.70;99.90;;;;;;4843064;29;20026;-79
2022/01/31 01:59:07;;;;;;;8.48;2.10;;;4.70;99.90;;;;;;4842456;29;20119;-79
2022/01/31 02:01:32;;;;;;;9.63;1.65;;;4.80;99.90;;;;;;4842759;29;20285;-78
2022/01/31 02:03:58;;;;;;;8.20;1.67;;;4.80;99.90;;;;;;4841071;29;20029;-78
2022/01/31 02:06:32;;;;;;;8.38;2.17;;;4.90;99.90;;;;;;4859236;29;20406;-78
2022/01/31 02:09:00;;;;;;;10.88;1.98;;;4.90;99.90;;;;;;4860995;29;20034;-78
2022/01/31 02:12:00;;;;;;;11.60;2.17;;;5.00;99.90;;;;;;4861057;29;20460;-79
2022/01/31 02:17:52;;;;;;;16.65;2.67;;;5.10;99.90;;;;;;4842920;29;20041;-79
2022/01/31 02:23:40;;;;;;;12.00;2.50;;;5.30;99.90;;;;;;4842475;29;20030;-79
2022/01/31 02:29:27;;;;;;;16.35;2.80;;;5.60;99.90;;;;;;4842407;29;20509;-79
2022/01/31 02:31:53;;;;;;;13.27;3.00;;;5.60;99.90;;;;;;4842293;29;20034;-80
2022/01/31 02:34:18;;;;;;;9.68;2.35;;;5.70;99.90;;;;;;4842064;29;20026;-80
2022/01/31 02:36:44;;;;;;;13.48;3.10;;;5.70;99.90;;;;;;4842298;29;20060;-80
2022/01/31 02:39:10;;;;;;;13.77;3.25;;;5.80;99.90;;;;;;4842116;29;20108;-80
2022/01/31 02:41:43;;;;;;;13.13;2.63;;;5.80;99.90;;;;;;4840909;29;20026;-80
2022/01/31 02:44:14;;;;;;;13.07;3.67;;;5.80;99.90;;;;;;4852167;29;20061;-80
2022/01/31 02:46:48;;;;;;;19.77;2.75;;;5.80;99.90;;;;;;4862343;29;20389;-80
2022/01/31 02:52:37;;;;;;;12.70;3.05;;;5.80;99.90;;;;;;4879320;29;20033;-80
2022/01/31 02:58:26;;;;;;;17.15;2.95;;;5.80;99.90;;;;;;4879321;29;20076;-79
2022/01/31 03:00:54;;;;;;;11.82;3.47;;;5.80;99.90;;;;;;4862671;29;20040;-80
2022/01/31 03:03:20;;;;;;;9.20;2.50;;;5.90;99.90;;;;;;4865211;29;20037;-80
2022/01/31 03:05:45;;;;;;;15.82;3.10;;;5.90;99.90;;;;;;4865356;29;20037;-80
2022/01/31 03:08:11;;;;;;;7.55;1.67;;;5.80;99.90;;;;;;4882214;29;20366;-80
2022/01/31 03:10:37;;;;;;;12.93;2.50;;;5.80;99.90;;;;;;4882128;29;20029;-80
2022/01/31 03:13:03;;;;;;;15.57;2.72;;;5.80;99.90;;;;;;4882300;29;20021;-80
2022/01/31 03:15:29;;;;;;;27.98;3.20;;;5.80;99.90;;;;;;4881948;29;20741;-80
2022/01/31 03:17:55;;;;;;;17.17;2.70;;;5.80;99.90;;;;;;4882270;29;20033;-80
2022/01/31 03:20:23;;;;;;;17.23;2.95;;;5.70;99.90;;;;;;4881987;29;20025;-79
2022/01/31 03:22:48;;;;;;;15.00;2.20;;;5.70;99.90;;;;;;4882239;29;20499;-80
2022/01/31 03:25:15;;;;;;;11.05;1.90;;;5.70;99.90;;;;;;4881774;29;20037;-80
2022/01/31 03:27:41;;;;;;;11.15;2.53;;;5.70;99.90;;;;;;4865154;29;20029;-80
2022/01/31 03:30:11;;;;;;;17.08;2.85;;;5.70;99.90;;;;;;4881987;29;20028;-80
2022/01/31 03:32:37;;;;;;;14.57;2.25;;;5.70;99.90;;;;;;4865106;29;20032;-80
2022/01/31 03:35:04;;;;;;;9.65;2.10;;;5.70;99.90;;;;;;4881720;29;20033;-80
2022/01/31 03:37:30;;;;;;;11.73;2.22;;;5.70;99.90;;;;;;4881894;29;20100;-80
2022/01/31 03:39:55;;;;;;;10.18;1.73;;;5.50;99.90;;;;;;4864967;29;20056;-80
2022/01/31 03:42:21;;;;;;;17.33;2.22;;;5.50;99.90;;;;;;4881611;29;20033;-80
2022/01/31 03:44:47;;;;;;;12.82;2.13;;;5.50;99.90;;;;;;4864374;29;20053;-80
2022/01/31 03:47:15;;;;;;;12.88;2.10;;;5.60;99.90;;;;;;4881514;29;20042;-80
2022/01/31 03:49:41;;;;;;;10.45;2.03;;;5.50;99.90;;;;;;4881371;29;20467;-80
2022/01/31 03:52:06;;;;;;;9.10;2.13;;;5.40;99.90;;;;;;4864682;29;20180;-80
2022/01/31 03:54:32;;;;;;;10.75;2.33;;;5.40;99.90;;;;;;4864633;29;20030;-79
2022/01/31 03:56:58;;;;;;;18.42;3.50;;;5.30;99.90;;;;;;4881276;29;20029;-80
2022/01/31 03:59:23;;;;;;;21.52;3.33;;;5.50;99.90;;;;;;4881416;29;20025;-80
2022/01/31 04:01:49;;;;;;;18.90;2.60;;;5.50;99.90;;;;;;4881144;29;20093;-80
2022/01/31 04:04:14;;;;;;;24.80;2.63;;;5.60;99.90;;;;;;4881192;29;20033;-80
2022/01/31 04:06:41;;;;;;;9.90;2.03;;;5.50;99.90;;;;;;4880933;29;20528;-80
2022/01/31 04:09:07;;;;;;;15.38;2.20;;;5.40;99.90;;;;;;4881108;29;20120;-80
2022/01/31 04:11:33;;;;;;;13.00;1.25;;;5.30;99.90;;;;;;4880951;29;20073;-80
2022/01/31 04:13:59;;;;;;;16.83;2.63;;;5.30;99.90;;;;;;4880329;29;20025;-80
2022/01/31 04:16:24;;;;;;;19.55;2.70;;;5.20;99.90;;;;;;4880839;29;20040;-80
2022/01/31 04:18:50;;;;;;;16.38;2.35;;;5.10;99.90;;;;;;4864133;29;20097;-80
2022/01/31 04:21:15;;;;;;;20.65;3.10;;;5.10;99.90;;;;;;4880953;29;20145;-80
2022/01/31 04:23:41;;;;;;;14.77;2.78;;;5.30;99.90;;;;;;4880831;29;20025;-80
2022/01/31 04:26:14;;;;;;;23.42;2.88;;;5.50;99.90;;;;;;4880774;29;20025;-81
2022/01/31 04:28:50;;;;;;;11.20;1.52;;;5.60;99.90;;;;;;4881085;29;20059;-80
2022/01/31 04:33:50;;;;;;;4.82;0.50;;;5.20;99.90;;;;;;4899362;29;20477;-80
2022/01/31 04:36:16;;;;;;;10.40;0.98;;;5.10;99.90;;;;;;4896956;29;20036;-80
2022/01/31 04:38:48;;;;;;;6.43;0.73;;;5.00;99.90;;;;;;4877601;29;20381;-80
2022/01/31 04:41:14;;;;;;;5.45;0.57;;;4.90;99.90;;;;;;4890660;29;20029;-81
2022/01/31 04:43:39;;;;;;;6.38;0.70;;;4.90;99.90;;;;;;4882492;29;20031;-80
2022/01/31 04:46:08;;;;;;;9.02;1.38;;;4.90;99.90;;;;;;4899181;29;20056;-80
2022/01/31 04:48:34;;;;;;;7.93;0.85;;;5.00;99.90;;;;;;4899401;29;20060;-80
2022/01/31 04:51:00;;;;;;;14.27;1.92;;;5.10;99.90;;;;;;4899209;29;20064;-80
2022/01/31 04:53:26;;;;;;;9.82;1.85;;;5.10;99.90;;;;;;4882340;29;20064;-80
2022/01/31 04:55:51;;;;;;;11.50;0.90;;;5.10;99.90;;;;;;4881832;29;20064;-80
2022/01/31 04:58:34;;;;;;;5.63;0.77;;;5.10;99.90;;;;;;4898991;29;20032;-80
2022/01/31 05:01:00;;;;;;;7.78;0.73;;;5.20;99.90;;;;;;4898926;29;20044;-81
2022/01/31 05:03:26;;;;;;;8.80;1.25;;;5.20;99.90;;;;;;4899191;29;20028;-80
2022/01/31 05:05:52;;;;;;;7.03;0.80;;;5.20;99.90;;;;;;4899288;29;20089;-81
2022/01/31 05:08:20;;;;;;;10.27;1.17;;;5.20;99.90;;;;;;4881363;29;20032;-81
2022/01/31 05:10:49;;;;;;;7.72;1.20;;;5.20;99.90;;;;;;4881701;29;20388;-81
2022/01/31 05:13:15;;;;;;;14.77;1.27;;;5.20;99.90;;;;;;4898905;29;20052;-81
2022/01/31 05:15:42;;;;;;;11.63;2.42;;;5.20;99.90;;;;;;4898949;29;20048;-81
2022/01/31 05:18:07;;;;;;;12.90;1.67;;;5.20;99.90;;;;;;4898732;29;20502;-80
2022/01/31 05:20:33;;;;;;;13.13;2.15;;;5.30;99.90;;;;;;4898589;29;20021;-81
2022/01/31 05:22:59;;;;;;;4.57;0.73;;;5.20;99.90;;;;;;4898664;29;20429;-81
2022/01/31 05:25:25;;;;;;;12.00;1.23;;;5.30;99.90;;;;;;4898872;29;20366;-81
2022/01/31 05:27:51;;;;;;;11.85;1.13;;;5.40;99.90;;;;;;4883264;29;20060;-81
2022/01/31 05:33:58;;;;;;;8.07;1.13;;;5.40;99.90;;;;;;4898260;29;20128;-81
2022/01/31 05:36:24;;;;;;;10.60;1.60;;;5.60;99.90;;;;;;4881539;29;20480;-81
2022/01/31 05:38:50;;;;;;;12.73;1.88;;;5.50;99.90;;;;;;4881675;29;20048;-81
2022/01/31 05:41:19;;;;;;;7.43;1.02;;;5.50;99.90;;;;;;4881834;29;20488;-83
2022/01/31 05:43:46;;;;;;;6.10;0.80;;;5.60;99.90;;;;;;4890588;29;20191;-82
2022/01/31 05:46:12;;;;;;;7.63;1.48;;;5.60;99.90;;;;;;4879358;29;20378;-82
2022/01/31 05:48:37;;;;;;;14.40;1.83;;;5.60;99.90;;;;;;4879873;29;20085;-82
2022/01/31 05:51:05;;;;;;;7.75;0.93;;;5.60;99.90;;;;;;4879749;29;20029;-82
2022/01/31 05:53:31;;;;;;;9.85;2.10;;;5.60;99.90;;;;;;4879931;29;20029;-82
2022/01/31 05:55:57;;;;;;;7.38;1.27;;;5.60;99.90;;;;;;4863024;29;20499;-82
2022/01/31 05:58:23;;;;;;;9.38;1.10;;;5.60;99.90;;;;;;4863133;29;20037;-82
2022/01/31 06:00:49;;;;;;;14.07;1.90;;;5.60;99.90;;;;;;4879857;29;20017;-82
2022/01/31 06:03:14;;;;;;;11.43;1.90;;;5.50;99.90;;;;;;4880243;29;20397;-83
2022/01/31 06:05:40;;;;;;;8.60;1.20;;;5.50;99.90;;;;;;4880615;29;20041;-82
2022/01/31 06:08:09;;;;;;;5.75;1.40;;;5.50;99.90;;;;;;4863230;29;20029;-82
2022/01/31 06:10:41;;;;;;;5.00;1.40;;;5.50;99.90;;;;;;4880048;29;20065;-82
2022/01/31 06:13:07;;;;;;;13.85;2.28;;;5.50;99.90;;;;;;4884577;29;20025;-82
2022/01/31 06:15:32;;;;;;;6.68;1.48;;;5.50;99.90;;;;;;4881531;29;20039;-82
2022/01/31 06:17:58;;;;;;;7.20;1.23;;;5.40;99.90;;;;;;4895327;29;20025;-81
2022/01/31 06:20:23;;;;;;;4.22;0.85;;;5.50;99.90;;;;;;4897890;29;20048;-81
2022/01/31 06:23:16;;;;;;;14.57;1.30;;;5.40;99.90;;;;;;4898084;29;20076;-82
2022/01/31 06:25:41;;;;;;;10.45;1.00;;;5.40;99.90;;;;;;4881434;29;20059;-82
2022/01/31 06:28:07;;;;;;;9.75;1.38;;;5.50;99.90;;;;;;4898153;29;20476;-82
2022/01/31 06:30:34;;;;;;;15.68;1.52;;;5.50;99.90;;;;;;4898546;29;20029;-83
2022/01/31 06:32:59;;;;;;;7.63;1.38;;;5.50;99.90;;;;;;4898198;29;20100;-81
2022/01/31 06:35:25;;;;;;;17.02;2.20;;;5.60;99.90;;;;;;4898130;29;20445;-82
2022/01/31 06:38:18;;;;;;;13.10;2.00;;;5.60;99.90;;;;;;4900672;29;20540;-82
2022/01/31 06:40:44;;;;;;;11.27;2.15;;;5.60;99.90;;;;;;4908766;29;20495;-82
2022/01/31 06:43:09;;;;;;;13.30;1.77;;;5.60;99.90;;;;;;4920677;29;20103;-81
2022/01/31 06:45:35;;;;;;;7.53;1.17;;;5.60;99.90;;;;;;4899803;29;20063;-81
2022/01/31 06:48:23;;;;;;;18.63;2.70;;;5.60;99.90;;;;;;4881857;29;20115;-81
2022/01/31 06:51:30;;;;;;;8.40;1.20;;;5.60;99.90;;;;;;4882775;29;20028;-81
2022/01/31 06:53:57;;;;;;;11.77;2.00;;;5.70;99.90;;;;;;4870083;29;20040;-81
2022/01/31 06:56:29;;;;;;;12.82;2.17;;;5.70;99.90;;;;;;4883232;29;20032;-81
2022/01/31 06:58:55;;;;;;;17.20;1.75;;;5.70;99.90;;;;;;4883891;29;20057;-81
2022/01/31 07:01:24;;;;;;;18.88;2.13;;;5.70;99.90;;;;;;4884949;29;20031;-82
2022/01/31 07:03:53;;;;;;;11.75;2.00;;;5.70;99.90;;;;;;4883949;29;20374;-81
2022/01/31 07:06:20;;;;;;;8.68;1.70;;;5.70;99.90;;;;;;4885373;29;20041;-81
2022/01/31 07:08:46;;;;;;;16.30;2.20;;;5.80;99.90;;;;;;4886392;29;20041;-81
2022/01/31 07:11:16;;;;;;;17.17;2.42;;;5.90;99.90;;;;;;4886371;29;20077;-81
2022/01/31 07:13:44;;;;;;;15.52;2.58;;;5.90;99.90;;;;;;4887470;29;20029;-81
2022/01/31 07:16:09;;;;;;;16.00;2.65;;;5.90;99.90;;;;;;4902022;29;20039;-82
2022/01/31 07:18:36;;;;;;;15.98;1.80;;;5.90;99.90;;;;;;4910159;29;20194;-81
2022/01/31 07:21:03;;;;;;;16.13;2.42;;;6.00;99.90;;;;;;4901434;29;20028;-81
2022/01/31 07:23:51;;;;;;;18.23;3.03;;;6.10;99.90;;;;;;4901069;29;20024;-82
2022/01/31 07:26:17;;;;;;;9.95;2.33;;;6.10;99.90;;;;;;4899549;29;20555;-81
2022/01/31 07:28:43;;;;;;;10.38;1.77;;;6.10;99.90;;;;;;4900853;29;20400;-82
2022/01/31 07:31:11;;;;;;;9.88;2.45;;;6.10;99.90;;;;;;4900777;29;20033;-81
2022/01/31 07:33:37;;;;;;;17.60;2.67;;;6.10;99.90;;;;;;4901136;29;20430;-82
2022/01/31 07:36:03;;;;;;;13.68;1.98;;;6.10;99.90;;;;;;4899379;29;20548;-82
2022/01/31 07:38:29;;;;;;;12.68;3.08;;;6.20;99.90;;;;;;4896487;29;20051;-82
2022/01/31 07:40:57;;;;;;;15.98;2.20;;;6.20;99.90;;;;;;4900461;29;20801;-82
2022/01/31 07:43:23;;;;;;;7.55;1.75;;;6.20;99.90;;;;;;4901066;29;20016;-82
2022/01/31 07:45:49;;;;;;;15.45;3.45;;;6.30;99.90;;;;;;4894054;29;20068;-82
2022/01/31 07:48:14;;;;;;;21.98;3.22;;;6.30;99.90;;;;;;4882745;29;20065;-82
2022/01/31 07:50:40;;;;;;;17.05;3.15;;;6.30;99.90;;;;;;4881897;29;20033;-81
2022/01/31 07:53:05;;;;;;;15.88;3.45;;;6.40;99.90;;;;;;4881049;29;20033;-82
2022/01/31 07:55:32;;;;;;;17.17;3.08;;;6.40;99.90;;;;;;4881657;29;20029;-83
2022/01/31 07:57:58;;;;;;;9.82;2.45;;;6.40;99.90;;;;;;4882072;29;20017;-82
2022/01/31 08:00:24;;;;;;;10.18;1.98;;;6.50;99.90;;;;;;4881770;29;20025;-82
2022/01/31 08:02:52;;;;;;;9.85;2.05;;;6.40;99.90;;;;;;4881331;29;20081;-82
2022/01/31 08:05:21;;;;;;;11.23;2.38;;;6.40;99.90;;;;;;4881668;29;20523;-82
2022/01/31 08:07:48;;;;;;;15.27;2.57;;;6.40;99.90;;;;;;4880175;29;20035;-83
2022/01/31 08:10:15;;;;;;;7.32;2.00;;;6.30;99.90;;;;;;4875834;29;20027;-82
2022/01/31 08:12:42;;;;;;;10.07;2.15;;;6.40;99.90;;;;;;4885011;29;20021;-82
2022/01/31 08:15:13;;;;;;;8.15;1.50;;;6.50;99.90;;;;;;4883170;29;20026;-82
2022/01/31 08:17:39;;;;;;;8.05;1.42;;;6.50;99.90;;;;;;4884297;29;20116;-82
2022/01/31 08:20:05;;;;;;;4.18;1.27;;;6.50;99.90;;;;;;4882146;29;20104;-82
2022/01/31 08:22:31;;;;;;;7.72;1.63;;;6.50;1.00;;;;;;4881011;29;20029;-82
2022/01/31 08:24:56;;;;;;;5.82;1.58;;;6.50;1.00;;;;;;4880958;29;20366;-82
2022/01/31 08:27:22;;;;;;;10.55;1.90;;;6.30;1.00;;;;;;4881146;29;20387;-82
2022/01/31 08:29:48;;;;;;;4.10;1.00;;;6.20;1.00;;;;;;4880770;29;20490;-82
2022/01/31 08:32:33;;;;;;;9.00;1.27;;;6.20;1.00;;;;;;4878551;29;20570;-81
2022/01/31 08:37:43;;;;;;;7.00;1.48;;;6.90;99.90;;;;;;4878862;29;20036;-82
2022/01/31 08:40:09;;;;;;;11.23;2.15;;;7.00;99.90;;;;;;4873025;29;20033;-82
2022/01/31 08:42:34;;;;;;;6.05;1.77;;;7.10;99.90;;;;;;4878092;29;20489;-82
2022/01/31 08:45:00;;;;;;;7.85;1.20;;;8.20;99.90;;;;;;4884780;29;20053;-82
2022/01/31 08:47:26;;;;;;;11.10;2.03;;;7.90;99.90;;;;;;4895824;29;20137;-82
2022/01/31 08:49:51;;;;;;;7.10;2.00;;;7.70;99.90;;;;;;4896963;29;20025;-82
2022/01/31 08:52:17;;;;;;;14.13;2.17;;;7.00;99.90;;;;;;4896885;29;20099;-82
2022/01/31 08:54:43;;;;;;;12.20;1.58;;;6.70;1.00;;;;;;4880156;29;20495;-81
2022/01/31 08:57:08;;;;;;;8.75;1.67;;;6.60;99.90;;;;;;4879992;29;20028;-82
2022/01/31 08:59:40;;;;;;;7.95;1.20;;;6.50;99.90;;;;;;4896107;29;20059;-81
2022/01/31 09:02:12;;;;;;;8.05;1.60;;;6.50;99.90;;;;;;4897812;29;20025;-82
2022/01/31 09:05:10;;;;;;;8.18;1.63;;;6.70;99.90;;;;;;4897616;29;20029;-81
2022/01/31 09:07:30;;;;;;;9.70;1.60;;;6.60;99.90;;;;;;4893249;29;20567;-81
2022/01/31 09:09:57;;;;;;;9.80;1.65;;;6.60;99.90;;;;;;4880931;29;20472;-82
2022/01/31 09:12:30;;;;;;;13.30;2.30;;;6.60;99.90;;;;;;4897780;29;20242;-82
2022/01/31 09:14:56;;;;;;;7.97;1.25;;;6.60;99.90;;;;;;4880730;29;20040;-82
2022/01/31 09:17:22;;;;;;;7.97;0.82;;;6.60;99.90;;;;;;4897676;29;20076;-81
2022/01/31 09:19:47;;;;;;;3.35;0.75;;;6.80;99.90;;;;;;4897670;29;20433;-82
2022/01/31 09:22:13;;;;;;;2.72;0.50;;;6.80;1.00;;;;;;4897773;29;20488;-81
2022/01/31 09:24:40;;;;;;;6.32;1.27;;;6.90;1.00;;;;;;4916639;29;20337;-82
2022/01/31 09:27:08;;;;;;;6.00;0.45;;;6.80;1.00;;;;;;4916666;29;20028;-81
2022/01/31 09:29:34;;;;;;;5.15;1.20;;;6.80;1.00;;;;;;4899402;29;20083;-81
2022/01/31 09:32:02;;;;;;;5.68;0.75;;;7.00;1.00;;;;;;4899306;29;20032;-82
2022/01/31 09:34:30;;;;;;;8.95;1.40;;;7.00;1.00;;;;;;4905394;29;20029;-82
2022/01/31 09:36:56;;;;;;;5.50;0.68;;;6.70;59.70;;;;;;4865459;29;20071;-82
2022/01/31 09:39:22;;;;;;;6.53;0.90;;;6.70;78.10;;;;;;4887605;29;20028;-82
2022/01/31 09:41:53;;;;;;;6.80;1.02;;;6.60;99.90;;;;;;4879070;29;20029;-81
2022/01/31 09:44:26;;;;;;;8.38;1.20;;;6.40;99.90;;;;;;4879362;29;20040;-81
2022/01/31 09:47:05;;;;;;;4.90;0.60;;;6.40;99.90;;;;;;4895066;29;20056;-81
2022/01/31 09:49:30;;;;;;;1.30;0.35;;;6.30;99.90;;;;;;4904083;29;20067;-81
2022/01/31 09:51:56;;;;;;;7.32;0.57;;;6.20;99.90;;;;;;4912650;29;20033;-80
2022/01/31 09:54:24;;;;;;;3.70;0.35;;;6.20;99.90;;;;;;4872030;29;20035;-81
2022/01/31 09:56:50;;;;;;;1.48;0.50;;;6.20;99.90;;;;;;4895309;29;20548;-80
2022/01/31 09:59:17;;;;;;;4.63;1.02;;;6.10;99.90;;;;;;4895336;29;20028;-80
2022/01/31 10:01:50;;;;;;;7.38;0.75;;;6.10;99.90;;;;;;4879319;29;20058;-81
2022/01/31 10:04:24;;;;;;;4.75;0.73;;;6.10;99.90;;;;;;4896308;29;20045;-80
2022/01/31 10:06:54;;;;;;;1.15;0.35;;;6.10;99.90;;;;;;4895928;29;20037;-80
2022/01/31 10:09:31;;;;;;;2.28;0.38;;;6.10;99.90;;;;;;4888489;29;20412;-80
2022/01/31 10:12:10;;;;;;;4.03;0.50;;;6.10;99.90;;;;;;4897375;29;20584;-80
2022/01/31 10:17:28;;;;;;;5.70;0.95;;;6.30;99.90;;;;;;4917429;29;20041;-81
2022/01/31 10:19:56;;;;;;;16.85;3.45;;;6.40;99.90;;;;;;4899230;29;20404;-80
2022/01/31 10:22:27;;;;;;;12.10;2.00;;;6.60;99.90;;;;;;4898622;29;20399;-81
2022/01/31 10:24:55;;;;;;;15.13;2.58;;;6.70;99.90;;;;;;4899568;29;20069;-81
2022/01/31 10:27:27;;;;;;;11.48;2.92;;;6.70;99.90;;;;;;4899778;29;20116;-81
2022/01/31 10:29:56;;;;;;;18.67;3.30;;;6.80;99.90;;;;;;4899737;29;20025;-81
2022/01/31 10:32:32;;;;;;;25.23;5.47;;;6.90;99.90;;;;;;4882470;29;20370;-81
2022/01/31 10:35:00;;;;;;;18.70;3.75;;;7.20;99.90;;;;;;4915411;29;20034;-81
2022/01/31 10:37:30;;;;;;;21.17;3.65;;;7.40;99.90;;;;;;4922420;29;20024;-82
2022/01/31 10:54:01;;;;;;;19.25;3.95;;;7.70;99.90;;;;;;4900958;29;20029;-81
2022/01/31 10:56:39;;;;;;;16.95;2.80;;;7.60;99.90;;;;;;4902549;29;20032;-82
2022/01/31 10:59:08;;;;;;;23.55;3.97;;;7.70;99.90;;;;;;4901599;29;20056;-81
2022/01/31 11:01:37;;;;;;;11.73;1.85;;;7.70;99.90;;;;;;4901809;29;20111;-82
2022/01/31 11:04:06;;;;;;;14.05;2.78;;;7.80;99.90;;;;;;4902069;29;20466;-82
2022/01/31 11:06:33;;;;;;;9.83;2.43;;;7.90;99.90;;;;;;4901809;29;20041;-82
2022/01/31 11:09:08;;;;;;;27.30;4.55;;;7.90;99.90;;;;;;4901139;29;20263;-82
2022/01/31 11:11:34;;;;;;;18.50;3.47;;;7.90;99.90;;;;;;4900330;29;20023;-82
2022/01/31 11:14:01;;;;;;;11.88;2.13;;;8.00;99.90;;;;;;4900533;29;20044;-82
2022/01/31 11:16:28;;;;;;;11.68;2.25;;;7.70;99.90;;;;;;4899654;29;20056;-82
2022/01/31 11:18:58;;;;;;;22.02;4.22;;;7.60;99.90;;;;;;4899266;29;20509;-82
2022/01/31 11:21:28;;;;;;;17.25;4.38;;;7.60;99.90;;;;;;4881091;29;20025;-82
2022/01/31 11:24:00;;;;;;;16.27;2.75;;;7.60;99.90;;;;;;4894522;29;20035;-82
2022/01/31 11:26:34;;;;;;;18.52;3.92;;;7.70;99.90;;;;;;4899530;29;20048;-82
2022/01/31 11:29:01;;;;;;;21.20;4.88;;;7.80;99.90;;;;;;4895224;29;20033;-82
2022/01/31 11:31:27;;;;;;;13.57;2.15;;;7.70;99.90;;;;;;4894389;29;20033;-82
2022/01/31 11:33:56;;;;;;;23.48;3.85;;;7.90;99.90;;;;;;4897262;29;20472;-82
2022/01/31 11:36:22;;;;;;;13.82;2.63;;;7.80;99.90;;;;;;4881319;29;20031;-82
2022/01/31 11:38:48;;;;;;;28.88;5.45;;;7.80;99.90;;;;;;4881539;29;20099;-82
2022/01/31 11:41:16;;;;;;;16.42;2.55;;;7.90;99.90;;;;;;4898397;29;20416;-82
2022/01/31 11:43:46;;;;;;;20.58;3.70;;;7.80;61.90;;;;;;4881901;29;20494;-82
2022/01/31 11:46:12;;;;;;;14.20;2.97;;;7.50;81.30;;;;;;4897310;29;20100;-82
2022/01/31 11:48:38;;;;;;;17.23;3.78;;;7.60;99.90;;;;;;4898327;29;20025;-82
2022/01/31 11:51:05;;;;;;;19.75;3.97;;;7.80;24.30;;;;;;4898331;29;20021;-82
2022/01/31 11:53:36;;;;;;;7.35;1.67;;;8.20;1.00;;;;;;4898272;29;20056;-82
2022/01/31 11:56:22;;;;;;;15.80;3.03;;;8.50;1.00;;;;;;4892801;29;20054;-82
2022/01/31 11:58:53;;;;;;;12.23;2.78;;;8.50;99.90;;;;;;4873180;29;20084;-82
2022/01/31 12:01:20;;;;;;;10.25;2.17;;;8.50;99.90;;;;;;4863882;29;20073;-82
2022/01/31 12:03:56;;;;;;;17.05;4.05;;;8.50;99.90;;;;;;4879930;29;20024;-82
2022/01/31 12:06:27;;;;;;;12.25;2.78;;;8.50;99.90;;;;;;4881113;29;20459;-82
2022/01/31 12:09:02;;;;;;;14.70;2.92;;;8.50;99.90;;;;;;4896959;29;20040;-82
2022/01/31 12:11:29;;;;;;;23.35;4.85;;;8.50;99.90;;;;;;4897166;29;20052;-82
2022/01/31 12:14:08;;;;;;;19.27;2.88;;;8.30;99.90;;;;;;4896937;29;20032;-82
2022/01/31 12:16:47;;;;;;;17.52;3.70;;;8.30;99.90;;;;;;4895684;29;20039;-83
2022/01/31 12:22:05;;;;;;;21.02;3.63;;;8.10;99.90;;;;;;4896160;29;20025;-83
2022/01/31 12:24:39;;;;;;;24.65;4.30;;;8.00;99.90;;;;;;4895802;29;20379;-83
2022/01/31 12:27:28;;;;;;;16.13;3.55;;;8.10;99.90;;;;;;4894503;29;20382;-83
2022/01/31 12:29:57;;;;;;;17.95;4.45;;;8.70;99.90;;;;;;4893712;29;20032;-83
2022/01/31 12:32:36;;;;;;;25.88;5.18;;;8.50;99.90;;;;;;4895915;29;20023;-83
2022/01/31 12:35:09;;;;;;;25.25;4.95;;;8.40;99.90;;;;;;4896482;29;20032;-84
2022/01/31 12:37:40;;;;;;;23.85;4.75;;;8.40;99.90;;;;;;4896161;29;20086;-83
2022/01/31 12:40:09;;;;;;;24.30;3.47;;;8.20;99.90;;;;;;4896874;29;20477;-83
2022/01/31 12:45:37;;;;;;;23.00;3.67;;;8.50;99.90;;;;;;4895811;29;20057;-83
2022/01/31 12:48:11;;;;;;;24.08;4.47;;;8.40;99.90;;;;;;4896618;29;20492;-83
2022/01/31 12:50:45;;;;;;;26.85;4.78;;;8.30;99.90;;;;;;4896247;29;20043;-83
2022/01/31 12:53:37;;;;;;;23.17;4.90;;;8.20;99.90;;;;;;4896621;29;20024;-84
2022/01/31 12:56:24;;;;;;;30.35;6.05;;;8.20;99.90;;;;;;4896420;29;20028;-84
2022/01/31 12:58:53;;;;;;;19.42;3.67;;;8.10;99.90;;;;;;4896759;29;20028;-83
2022/01/31 13:01:39;;;;;;;17.77;3.50;;;8.00;99.90;;;;;;4879392;29;20032;-83
2022/01/31 13:04:06;;;;;;;16.35;3.83;;;8.10;99.90;;;;;;4896479;29;20437;-84
2022/01/31 13:06:35;;;;;;;18.60;3.88;;;8.00;99.90;;;;;;4896276;29;20076;-83
2022/01/31 13:09:24;;;;;;;22.48;4.68;;;8.00;99.90;;;;;;4879312;29;20064;-83
2022/01/31 13:11:58;;;;;;;23.52;3.72;;;7.90;99.90;;;;;;4878301;29;20508;-84
2022/01/31 13:14:32;;;;;;;22.65;5.20;;;7.90;99.90;;;;;;4896282;29;20541;-84
2022/01/31 13:17:14;;;;;;;16.17;3.40;;;7.90;99.90;;;;;;4896349;29;20037;-83
2022/01/31 13:19:52;;;;;;;17.63;3.30;;;7.80;99.90;;;;;;4896617;29;20028;-83
2022/01/31 13:22:27;;;;;;;10.27;2.72;;;7.80;99.90;;;;;;4896156;29;20043;-83
2022/01/31 13:25:03;;;;;;;23.50;4.13;;;7.90;99.90;;;;;;4896427;29;20029;-83
2022/01/31 13:27:35;;;;;;;26.92;4.28;;;7.80;99.90;;;;;;4896378;29;20040;-84
2022/01/31 13:30:04;;;;;;;24.38;4.22;;;7.90;99.90;;;;;;4879284;29;20032;-84
2022/01/31 13:32:34;;;;;;;25.15;4.63;;;7.80;99.90;;;;;;4895400;29;20036;-84
2022/01/31 13:35:04;;;;;;;22.42;4.88;;;7.70;99.90;;;;;;4872975;29;20025;-83
2022/01/31 13:37:44;;;;;;;25.40;5.00;;;7.70;99.90;;;;;;4895500;29;20036;-83
2022/01/31 13:40:32;;;;;;;14.02;2.95;;;7.60;99.90;;;;;;4897322;29;20036;-84
2022/01/31 13:43:23;;;;;;;22.35;4.80;;;7.70;99.90;;;;;;4898344;29;20056;-84
2022/01/31 13:46:10;;;;;;;18.83;4.13;;;7.70;99.90;;;;;;4897631;29;20052;-83
2022/01/31 13:51:42;;;;;;;14.32;3.97;;;7.70;99.90;;;;;;4897670;29;20041;-84
2022/01/31 13:54:12;;;;;;;17.75;4.30;;;7.70;99.90;;;;;;4881707;29;20095;-84
2022/01/31 13:56:39;;;;;;;22.75;4.07;;;7.80;99.90;;;;;;4881139;29;20064;-84
2022/01/31 13:59:08;;;;;;;12.82;3.28;;;7.80;99.90;;;;;;4895496;29;20025;-84
2022/01/31 14:01:34;;;;;;;13.95;3.97;;;7.70;99.90;;;;;;4878589;29;20064;-84
2022/01/31 14:04:01;;;;;;;17.02;4.38;;;7.70;99.90;;;;;;4878977;29;20064;-84
2022/01/31 14:06:31;;;;;;;19.38;4.43;;;7.60;99.90;;;;;;4878496;29;20107;-84
2022/01/31 14:09:02;;;;;;;14.70;3.25;;;7.60;99.90;;;;;;4895665;29;20043;-84
2022/01/31 14:11:34;;;;;;;6.97;1.90;;;7.70;99.90;;;;;;4895489;29;20040;-84
2022/01/31 14:14:00;;;;;;;13.48;2.58;;;7.70;99.90;;;;;;4895662;29;20033;-84
2022/01/31 14:16:28;;;;;;;10.90;2.28;;;7.70;99.90;;;;;;4895586;29;20036;-84